createdAt,value
2019-02-06T09:14:46.434Z,17.03
2019-02-06T09:17:15.030Z,19.43
2019-02-06T09:19:43.684Z,19.07
2019-02-06T09:22:12.274Z,17.98
2019-02-06T09:24:41.006Z,18.65
2019-02-06T09:27:10.691Z,18.17
2019-02-06T09:29:39.660Z,20.33
2019-02-06T09:32:09.076Z,17.23
2019-02-06T09:34:37.739Z,19.43
2019-02-06T09:37:07.229Z,19.55
2019-02-06T09:39:35.859Z,18.50
2019-02-06T09:42:04.451Z,19.07
2019-02-06T09:44:33.118Z,18.83
2019-02-06T09:47:01.706Z,19.00
2019-02-06T09:49:30.307Z,19.67
2019-02-06T09:51:58.909Z,20.40
2019-02-06T09:54:27.528Z,21.33
2019-02-06T09:56:56.125Z,20.10
2019-02-06T09:59:24.717Z,20.60
2019-02-06T10:01:53.791Z,21.43
2019-02-06T10:04:22.384Z,20.17
2019-02-06T10:06:50.976Z,20.50
2019-02-06T10:09:23.095Z,21.45
2019-02-06T10:11:49.930Z,20.30
2019-02-06T10:14:18.527Z,19.97
2019-02-06T10:16:48.731Z,20.53
2019-02-06T10:19:17.381Z,21.30
2019-02-06T10:21:45.999Z,21.57
2019-02-06T10:24:14.587Z,21.27
2019-02-06T10:26:43.178Z,20.07
2019-02-06T10:29:11.771Z,20.27
2019-02-06T10:31:40.363Z,22.03
2019-02-06T10:34:09.867Z,21.65
2019-02-06T10:36:38.519Z,19.43
2019-02-06T10:39:08.451Z,20.10
2019-02-06T10:41:37.047Z,20.63
2019-02-06T10:44:05.703Z,19.07
2019-02-06T10:46:34.345Z,19.60
2019-02-06T10:49:03.318Z,19.93
2019-02-06T10:51:31.916Z,19.90
2019-02-06T10:54:00.496Z,18.97
2019-02-06T10:56:29.090Z,20.43
2019-02-06T10:58:57.682Z,19.83
2019-02-06T11:01:26.277Z,20.00
2019-02-06T11:03:54.870Z,20.70
2019-02-06T11:06:23.702Z,20.02
2019-02-06T11:08:52.340Z,20.83
2019-02-06T11:11:20.962Z,21.50
2019-02-06T11:13:49.889Z,21.90
2019-02-06T11:16:18.661Z,23.13
2019-02-06T11:18:47.278Z,21.07
2019-02-06T11:21:15.872Z,21.80
2019-02-06T11:23:44.478Z,21.87
2019-02-06T11:26:13.122Z,21.62
2019-02-06T11:28:41.715Z,22.63
2019-02-06T11:31:10.620Z,22.13
2019-02-06T11:33:39.210Z,22.40
2019-02-06T11:36:08.102Z,23.03
2019-02-06T11:38:36.868Z,23.23
2019-02-06T11:41:05.462Z,25.07
2019-02-06T11:43:34.053Z,23.23
2019-02-06T11:46:02.688Z,23.57
2019-02-06T11:48:31.321Z,23.50
2019-02-06T11:51:00.003Z,24.10
2019-02-06T11:53:29.075Z,23.57
2019-02-06T11:55:57.666Z,24.57
2019-02-06T11:58:27.814Z,24.00
2019-02-06T12:01:04.167Z,24.90
2019-02-06T12:03:32.751Z,25.70
2019-02-06T12:06:01.339Z,27.20
2019-02-06T12:08:31.249Z,26.10
2019-02-06T12:11:00.026Z,26.27
2019-02-06T12:13:28.652Z,26.53
2019-02-06T12:15:57.299Z,24.93
2019-02-06T12:18:25.976Z,28.90
2019-02-06T12:20:54.564Z,30.80
2019-02-06T12:23:31.952Z,29.50
2019-02-06T12:25:53.473Z,29.57
2019-02-06T12:28:22.061Z,30.88
2019-02-06T12:30:50.656Z,30.67
2019-02-06T12:33:19.244Z,31.30
2019-02-06T12:35:47.840Z,28.97
2019-02-06T12:38:16.427Z,30.40
2019-02-06T12:40:45.286Z,28.23
2019-02-06T12:43:13.871Z,30.13
2019-02-06T12:45:42.462Z,30.03
2019-02-06T12:48:11.392Z,30.30
2019-02-06T12:50:39.980Z,30.87
2019-02-06T12:53:09.128Z,29.70
2019-02-06T12:55:41.489Z,28.57
2019-02-06T12:58:11.255Z,31.07
2019-02-06T13:00:42.043Z,29.77
2019-02-06T13:03:10.945Z,30.70
2019-02-06T13:05:39.597Z,29.63
2019-02-06T13:08:08.645Z,31.68
2019-02-06T13:10:37.234Z,32.00
2019-02-06T13:13:05.831Z,30.60
2019-02-06T13:15:34.932Z,30.73
2019-02-06T13:18:03.560Z,30.17
2019-02-06T13:20:36.580Z,30.37
2019-02-06T13:23:06.072Z,30.83
2019-02-06T13:25:34.655Z,31.60
2019-02-06T13:28:03.246Z,29.65
2019-02-06T13:30:34.730Z,31.67
2019-02-06T13:33:03.321Z,28.90
2019-02-06T13:35:31.951Z,33.00
2019-02-06T13:38:00.537Z,31.20
2019-02-06T13:40:29.626Z,31.93
2019-02-06T13:42:58.713Z,30.80
2019-02-06T13:45:32.484Z,31.07
2019-02-06T13:48:01.059Z,29.87
2019-02-06T13:50:29.752Z,31.33
2019-02-06T13:52:58.343Z,31.97
2019-02-06T13:55:27.015Z,30.47
2019-02-06T13:57:55.614Z,32.37
2019-02-06T14:00:27.138Z,31.97
2019-02-06T14:02:55.726Z,28.90
2019-02-06T14:05:27.042Z,30.27
2019-02-06T14:07:57.837Z,29.43
2019-02-06T14:10:28.420Z,30.83
2019-02-06T14:12:57.010Z,28.00
2019-02-06T14:15:32.071Z,29.87
2019-02-06T14:18:01.240Z,29.10
2019-02-06T14:20:29.949Z,28.93
2019-02-06T14:23:01.780Z,29.50
2019-02-06T14:25:50.114Z,31.48
2019-02-06T14:28:44.772Z,29.43
2019-02-06T14:31:19.997Z,30.12
2019-02-06T14:33:57.864Z,31.57
2019-02-06T14:36:35.281Z,31.63
2019-02-06T14:39:15.964Z,30.77
2019-02-06T14:42:07.901Z,30.77
2019-02-06T14:44:45.199Z,29.50
2019-02-06T14:47:19.395Z,30.53
2019-02-06T14:49:51.275Z,30.53
2019-02-06T14:52:38.261Z,29.63
2019-02-06T14:55:27.813Z,30.33
2019-02-06T14:57:59.567Z,31.03
2019-02-06T15:00:59.284Z,32.33
2019-02-06T15:03:27.517Z,30.37
2019-02-06T15:06:02.463Z,30.93
2019-02-06T15:08:43.235Z,30.68
2019-02-06T15:11:19.658Z,29.72
2019-02-06T15:14:17.972Z,30.77
2019-02-06T15:17:15.207Z,30.03
2019-02-06T15:19:58.552Z,30.17
2019-02-06T15:22:47.033Z,31.23
2019-02-06T15:25:19.190Z,29.73
2019-02-06T15:28:02.883Z,30.97
2019-02-06T15:30:54.100Z,32.10
2019-02-06T15:33:40.726Z,29.65
2019-02-06T15:36:35.779Z,33.02
2019-02-06T15:39:28.640Z,33.53
2019-02-06T15:42:18.731Z,31.30
2019-02-06T15:44:50.832Z,33.20
2019-02-06T15:47:40.822Z,33.10
2019-02-06T15:50:29.903Z,34.30
2019-02-06T15:53:01.615Z,33.80
2019-02-06T15:55:59.111Z,32.20
2019-02-06T15:58:36.799Z,35.00
2019-02-06T16:01:57.201Z,33.03
2019-02-06T16:08:28.048Z,33.33
2019-02-06T16:11:06.255Z,33.60
2019-02-06T16:17:38.735Z,33.73
2019-02-06T16:20:32.558Z,33.47
2019-02-06T16:23:25.065Z,27.20
2019-02-06T16:32:34.866Z,26.20
2019-02-06T16:36:17.546Z,25.23
2019-02-06T16:39:05.131Z,24.97
2019-02-06T16:41:56.703Z,26.03
2019-02-06T16:44:51.082Z,26.73
2019-02-06T16:47:32.156Z,26.25
2019-02-06T16:50:06.738Z,26.50
2019-02-06T16:53:01.232Z,25.47
2019-02-06T16:55:38.944Z,25.70
2019-02-06T16:58:17.991Z,25.32
2019-02-06T17:00:58.635Z,24.77
2019-02-06T17:03:51.376Z,24.40
2019-02-06T17:06:38.023Z,24.98
2019-02-06T17:09:16.448Z,25.57
2019-02-06T17:12:10.320Z,25.03
2019-02-06T17:14:51.106Z,24.93
2019-02-06T17:17:28.638Z,25.12
2019-02-06T17:20:26.371Z,24.93
2019-02-06T17:23:06.734Z,23.90
2019-02-06T17:25:42.082Z,24.90
2019-02-06T17:28:19.924Z,25.47
2019-02-06T17:31:07.993Z,24.23
2019-02-06T17:33:58.186Z,23.83
2019-02-06T17:36:44.911Z,24.50
2019-02-06T17:39:25.728Z,23.73
2019-02-06T17:42:29.125Z,24.00
2019-02-06T17:45:17.312Z,23.50
2019-02-06T17:48:14.690Z,23.00
2019-02-06T17:51:04.709Z,24.63
2019-02-06T17:53:48.594Z,22.93
2019-02-06T17:56:17.214Z,23.63
2019-02-06T17:58:45.804Z,22.57
2019-02-06T18:01:17.614Z,24.15
2019-02-06T18:03:47.542Z,24.53
2019-02-06T18:06:17.048Z,24.32
2019-02-06T18:08:56.120Z,24.73
2019-02-06T18:11:15.967Z,26.80
2019-02-06T18:13:44.592Z,27.43
2019-02-06T18:16:21.090Z,26.80
2019-02-06T18:18:43.653Z,24.87
2019-02-06T18:21:12.504Z,26.73
2019-02-06T18:23:41.100Z,25.73
2019-02-06T18:26:10.668Z,23.87
2019-02-06T18:28:39.557Z,24.50
2019-02-06T18:31:09.522Z,23.73
2019-02-06T18:33:38.120Z,23.87
2019-02-06T18:36:07.048Z,25.23
2019-02-06T18:38:46.319Z,24.47
2019-02-06T18:41:07.283Z,25.70
2019-02-06T18:43:35.876Z,23.07
2019-02-06T18:46:04.466Z,26.27
2019-02-06T18:48:33.860Z,25.67
2019-02-06T18:51:02.524Z,25.50
2019-02-06T18:53:31.122Z,25.87
2019-02-06T18:55:59.888Z,25.27
2019-02-06T18:58:28.562Z,24.70
2019-02-06T19:00:57.245Z,24.73
2019-02-06T19:03:29.031Z,24.00
2019-02-06T19:05:57.861Z,25.10
2019-02-06T19:08:26.459Z,24.27
2019-02-06T19:10:55.114Z,23.50
2019-02-06T19:13:23.707Z,21.83
2019-02-06T19:15:56.481Z,23.52
2019-02-06T19:18:23.226Z,23.87
2019-02-06T19:20:51.945Z,24.37
2019-02-06T19:23:20.578Z,22.48
2019-02-06T19:25:49.178Z,23.80
2019-02-06T19:28:18.158Z,26.00
2019-02-06T19:30:46.954Z,22.73
2019-02-06T19:33:17.286Z,25.87
2019-02-06T19:35:45.984Z,26.43
2019-02-06T19:38:14.582Z,25.20
2019-02-06T19:40:43.243Z,24.93
2019-02-06T19:43:11.923Z,27.23
2019-02-06T19:45:40.920Z,33.57
2019-02-06T19:48:16.316Z,25.77
2019-02-06T19:50:45.960Z,23.97
2019-02-06T19:53:14.634Z,24.77
2019-02-06T19:55:43.310Z,20.50
2019-02-06T19:58:12.388Z,21.70
2019-02-06T20:00:40.986Z,20.53
2019-02-06T20:03:10.638Z,19.00
2019-02-06T20:05:39.234Z,19.33
2019-02-06T20:08:08.381Z,20.20
2019-02-06T20:10:39.952Z,19.03
2019-02-06T20:13:13.844Z,24.32
2019-02-06T20:15:40.009Z,30.83
2019-02-06T20:18:09.526Z,23.90
2019-02-06T20:20:38.162Z,20.97
2019-02-06T20:23:07.725Z,20.72
2019-02-06T20:25:36.452Z,24.87
2019-02-06T20:28:05.078Z,26.33
2019-02-06T20:30:33.778Z,18.57
2019-02-06T20:33:02.551Z,20.73
2019-02-06T20:35:31.351Z,27.97
2019-02-06T20:38:00.019Z,27.73
2019-02-06T20:40:34.227Z,22.22
2019-02-06T20:43:02.906Z,21.80
2019-02-06T20:45:31.915Z,26.63
2019-02-06T20:48:00.588Z,20.73
2019-02-06T20:50:31.757Z,22.87
2019-02-06T20:53:00.631Z,26.00
2019-02-06T20:55:29.333Z,25.65
2019-02-06T20:57:57.924Z,28.40
2019-02-06T21:00:29.277Z,29.02
2019-02-06T21:02:57.897Z,26.00
2019-02-06T21:05:26.536Z,27.50
2019-02-06T21:07:55.121Z,26.00
2019-02-06T21:10:28.965Z,28.50
2019-02-06T21:12:57.576Z,27.80
2019-02-06T21:15:26.198Z,25.72
2019-02-06T21:17:54.783Z,27.03
2019-02-06T21:20:24.410Z,27.48
2019-02-06T21:22:53.064Z,24.67
2019-02-06T21:25:25.301Z,21.97
2019-02-06T21:27:54.022Z,22.10
2019-02-06T21:30:34.141Z,22.83
2019-02-06T21:33:02.746Z,23.03
2019-02-06T21:35:31.343Z,23.17
2019-02-06T21:38:00.346Z,28.10
2019-02-06T21:40:35.017Z,25.83
2019-02-06T21:43:03.878Z,28.07
2019-02-06T21:45:32.466Z,31.03
2019-02-06T21:48:01.131Z,30.00
2019-02-06T21:50:29.786Z,29.90
2019-02-06T21:52:58.725Z,29.80
2019-02-06T21:55:27.816Z,29.42
2019-02-06T21:57:56.416Z,25.80
2019-02-06T22:00:30.696Z,21.03
2019-02-06T22:02:59.467Z,20.47
2019-02-06T22:05:28.071Z,21.83
2019-02-06T22:07:56.757Z,22.10
2019-02-06T22:10:25.445Z,23.33
2019-02-06T22:12:54.050Z,20.90
2019-02-06T22:15:28.332Z,21.42
2019-02-06T22:17:56.928Z,22.10
2019-02-06T22:20:26.041Z,20.70
2019-02-06T22:22:54.633Z,22.80
2019-02-06T22:25:23.231Z,23.93
2019-02-06T22:27:51.750Z,25.07
2019-02-06T22:30:24.728Z,23.02
2019-02-06T22:32:53.383Z,24.03
2019-02-06T22:35:22.360Z,23.63
2019-02-06T22:37:50.992Z,25.33
2019-02-06T22:40:21.282Z,27.82
2019-02-06T22:42:49.880Z,26.80
2019-02-06T22:45:20.370Z,23.03
2019-02-06T22:47:49.017Z,20.90
2019-02-06T22:50:20.079Z,19.70
2019-02-06T22:52:48.677Z,20.73
2019-02-06T22:55:17.276Z,25.52
2019-02-06T22:57:45.875Z,22.33
2019-02-06T23:00:31.486Z,21.93
2019-02-06T23:03:00.354Z,19.40
2019-02-06T23:05:29.010Z,17.77
2019-02-06T23:07:57.603Z,20.03
2019-02-06T23:10:26.188Z,21.15
2019-02-06T23:12:54.787Z,19.77
2019-02-06T23:15:23.443Z,18.75
2019-02-06T23:17:52.458Z,21.50
2019-02-06T23:20:21.052Z,24.13
2019-02-06T23:22:49.683Z,26.63
2019-02-06T23:25:18.294Z,23.57
2019-02-06T23:27:46.886Z,32.03
2019-02-06T23:30:16.134Z,31.40
2019-02-06T23:32:45.003Z,23.60
2019-02-06T23:35:13.659Z,19.10
2019-02-06T23:37:42.299Z,21.55
2019-02-06T23:40:14.141Z,22.77
2019-02-06T23:42:42.796Z,24.20
2019-02-06T23:45:11.906Z,22.83
2019-02-06T23:47:41.144Z,22.10
2019-02-06T23:50:15.872Z,31.77
2019-02-06T23:52:44.453Z,32.37
2019-02-06T23:55:13.071Z,30.03
2019-02-06T23:57:41.777Z,28.47
